createdAt,value
2022-10-30T00:04:34.310Z,4.0114
2022-10-30T00:14:58.249Z,4.0114
2022-10-30T00:20:10.137Z,4.0114
2022-10-30T00:25:22.182Z,4.0114
2022-10-30T00:30:33.787Z,4.0114
2022-10-30T00:35:48.602Z,4.0114
2022-10-30T00:40:59.393Z,4.0114
2022-10-30T00:46:10.918Z,4.0114
2022-10-30T00:51:22.879Z,4.0162
2022-10-30T00:56:34.923Z,4.0114
2022-10-30T01:06:59.038Z,4.0065
2022-10-30T01:12:10.885Z,4.0065
2022-10-30T01:17:22.741Z,4.0065
2022-10-30T01:22:34.548Z,4.0065
2022-10-30T01:33:00.576Z,4.0065
2022-10-30T01:38:11.602Z,4.0114
2022-10-30T01:43:23.554Z,4.0065
2022-10-30T01:48:35.270Z,4.0065
2022-10-30T01:58:58.914Z,4.0114
2022-10-30T02:04:10.743Z,4.0065
2022-10-30T02:09:22.578Z,4.0065
2022-10-30T02:14:34.584Z,4.0065
2022-10-30T02:24:58.279Z,4.0065
2022-10-30T02:30:10.013Z,4.0065
2022-10-30T02:35:21.547Z,4.0065
2022-10-30T02:40:33.245Z,4.0065
2022-10-30T02:50:56.698Z,4.0065
2022-10-30T02:56:08.524Z,4.0065
2022-10-30T03:01:21.461Z,4.0016
2022-10-30T03:06:33.123Z,4.0065
2022-10-30T03:22:08.385Z,4.0065
2022-10-30T03:27:20.199Z,4.0016
2022-10-30T03:32:32.118Z,4.0065
2022-10-30T03:42:57.555Z,4.0016
2022-10-30T03:48:08.895Z,4.0016
2022-10-30T03:53:20.389Z,4.0016
2022-10-30T03:58:32.250Z,4.0016
2022-10-30T04:08:55.910Z,4.0016
2022-10-30T04:14:07.740Z,4.0016
2022-10-30T04:19:19.847Z,4.0016
2022-10-30T04:24:31.581Z,4.0016
2022-10-30T04:40:06.830Z,4.0016
2022-10-30T04:45:18.549Z,4.0016
2022-10-30T04:50:30.514Z,4.0016
2022-10-30T05:01:03.702Z,4.0016
2022-10-30T05:06:18.434Z,4.0016
2022-10-30T05:11:30.089Z,4.0016
2022-10-30T05:21:53.704Z,3.9967
2022-10-30T05:27:05.643Z,4.0016
2022-10-30T05:32:17.512Z,4.0016
2022-10-30T05:37:29.254Z,3.9967
2022-10-30T05:53:04.531Z,3.9967
2022-10-30T05:58:16.225Z,3.9967
2022-10-30T06:03:27.963Z,3.9967
2022-10-30T06:13:51.545Z,3.9967
2022-10-30T06:19:03.181Z,3.9967
2022-10-30T06:24:15.165Z,3.9967
2022-10-30T06:29:26.933Z,3.9967
2022-10-30T06:34:39.006Z,3.9967
2022-10-30T06:40:00.883Z,3.9967
2022-10-30T06:45:12.491Z,3.9967
2022-10-30T06:50:24.434Z,3.9967
2022-10-30T06:55:36.316Z,3.9967
2022-10-30T07:11:11.860Z,3.9967
2022-10-30T07:16:23.610Z,3.9967
2022-10-30T07:21:35.609Z,3.9967
2022-10-30T07:32:04.778Z,3.9967
2022-10-30T07:37:19.053Z,4.0065
2022-10-30T07:42:31.381Z,3.9967
2022-10-30T07:52:54.913Z,3.9967
2022-10-30T07:58:06.742Z,3.9967
2022-10-30T08:03:18.664Z,3.9967
2022-10-30T08:08:30.668Z,4.0016
2022-10-30T08:18:54.888Z,3.9967
2022-10-30T08:24:07.120Z,3.9967
2022-10-30T08:29:19.200Z,3.9967
2022-10-30T08:34:31.031Z,4.0016
2022-10-30T08:44:55.648Z,3.9967
2022-10-30T08:50:07.759Z,3.9967
2022-10-30T08:55:19.670Z,3.9967
2022-10-30T09:00:31.907Z,3.9967
2022-10-30T09:10:55.921Z,4.0016
2022-10-30T09:16:08.132Z,3.9967
2022-10-30T09:21:20.217Z,3.9967
2022-10-30T09:26:32.491Z,3.9967
2022-10-30T09:31:52.120Z,4.0065
2022-10-30T09:37:03.986Z,4.0016
2022-10-30T09:42:16.224Z,3.9967
2022-10-30T09:47:28.819Z,4.0016
2022-10-30T10:03:06.934Z,3.9967
2022-10-30T10:08:19.429Z,3.9967
2022-10-30T10:13:32.639Z,4.0016
2022-10-30T10:23:57.188Z,3.9967
2022-10-30T10:29:09.578Z,3.9967
2022-10-30T10:34:22.007Z,3.9967
2022-10-30T10:39:34.198Z,4.0016
2022-10-30T10:49:58.941Z,4.0016
2022-10-30T10:55:11.345Z,3.9967
2022-10-30T11:00:23.877Z,4.0016
2022-10-30T11:05:37.133Z,4.0016
2022-10-30T11:10:52.733Z,4.0699
2022-10-30T11:16:08.334Z,4.0748
2022-10-30T11:21:23.156Z,4.0748
2022-10-30T11:37:00.440Z,4.0846
2022-10-30T11:42:13.216Z,4.0846
2022-10-30T11:47:26.806Z,4.0846
2022-10-30T11:57:52.830Z,4.0894
2022-10-30T12:03:05.540Z,4.0992
2022-10-30T12:13:28.768Z,4.109
2022-10-30T12:23:54.848Z,4.0992
2022-10-30T12:34:18.373Z,4.1041
2022-10-30T12:39:32.159Z,4.0992
2022-10-30T12:49:55.526Z,4.1187
2022-10-30T12:55:08.078Z,4.1285
2022-10-30T13:00:20.378Z,4.1431
2022-10-30T13:21:04.412Z,4.1675
2022-10-30T13:26:16.658Z,4.1773
2022-10-30T13:31:29.223Z,4.1578
2022-10-30T13:41:52.164Z,4.148
2022-10-30T13:47:04.659Z,4.1334
2022-10-30T14:23:17.438Z,4.1334
2022-10-30T14:28:29.591Z,4.1236
2022-10-30T14:38:54.369Z,4.1285
2022-10-30T14:44:06.786Z,4.1285
2022-10-30T14:54:29.085Z,4.1285
2022-10-30T15:04:53.334Z,4.1285
2022-10-30T15:15:15.569Z,4.1285
2022-10-30T15:20:27.728Z,4.1285
2022-10-30T15:30:50.116Z,4.1236
2022-10-30T15:36:02.303Z,4.1236
2022-10-30T15:41:14.572Z,4.1187
2022-10-30T16:01:57.092Z,4.109
2022-10-30T16:12:18.935Z,4.109
2022-10-30T16:38:16.251Z,4.0992
2022-10-30T16:43:27.385Z,4.0992
2022-10-30T16:48:39.503Z,4.0992
2022-10-30T16:59:03.787Z,4.0894
2022-10-30T17:04:16.383Z,4.0894
2022-10-30T17:09:28.275Z,4.0894
2022-10-30T17:30:13.997Z,4.0846
2022-10-30T17:35:26.016Z,4.0797
2022-10-30T17:40:38.029Z,4.0797
2022-10-30T17:56:15.720Z,4.0748
2022-10-30T18:01:52.496Z,4.0748
2022-10-30T18:07:00.659Z,4.0748
2022-10-30T18:12:12.705Z,4.0699
2022-10-30T18:17:24.363Z,4.0748
2022-10-30T18:22:36.208Z,4.0748
2022-10-30T18:33:01.099Z,4.0699
2022-10-30T18:38:12.201Z,4.0699
2022-10-30T18:43:26.321Z,4.0748
2022-10-30T18:48:37.851Z,4.0699
2022-10-30T19:04:23.387Z,4.065
2022-10-30T19:09:33.965Z,4.0602
2022-10-30T19:20:17.067Z,4.0699
2022-10-30T19:25:26.297Z,4.0602
2022-10-30T19:30:37.985Z,4.0602
2022-10-30T19:41:01.725Z,4.0602
2022-10-30T19:46:13.542Z,4.0553
2022-10-30T19:51:25.398Z,4.0553
2022-10-30T19:56:37.512Z,4.0553
2022-10-30T20:07:03.835Z,4.0553
2022-10-30T20:12:15.074Z,4.0553
2022-10-30T20:17:29.705Z,4.0553
2022-10-30T20:22:44.237Z,4.0602
2022-10-30T20:27:55.711Z,4.0504
2022-10-30T20:33:07.366Z,4.0602
2022-10-30T20:38:19.442Z,4.0553
2022-10-30T20:43:31.415Z,4.0553
2022-10-30T20:48:43.235Z,4.0504
2022-10-30T20:53:55.059Z,4.0602
2022-10-30T20:59:07.023Z,4.0504
2022-10-30T21:04:19.155Z,4.0504
2022-10-30T21:09:31.421Z,4.0504
2022-10-30T21:14:43.267Z,4.0504
2022-10-30T21:25:06.913Z,4.0504
2022-10-30T21:30:18.977Z,4.0504
2022-10-30T21:35:30.926Z,4.0504
2022-10-30T21:40:42.872Z,4.0455
2022-10-30T21:45:54.725Z,4.0455
2022-10-30T21:51:07.669Z,4.0455
2022-10-30T21:56:19.342Z,4.0455
2022-10-30T22:01:32.150Z,4.0455
2022-10-30T22:06:43.734Z,4.0455
2022-10-30T22:17:07.575Z,4.0455
2022-10-30T22:22:19.511Z,4.0406
2022-10-30T22:27:31.379Z,4.0455
2022-10-30T22:32:43.149Z,4.0406
2022-10-30T22:37:54.909Z,4.0504
2022-10-30T22:43:06.965Z,4.0406
2022-10-30T22:48:18.524Z,4.0504
2022-10-30T22:53:30.225Z,4.0455
2022-10-30T22:58:42.085Z,4.0406
2022-10-30T23:09:05.132Z,4.0406
2022-10-30T23:14:16.857Z,4.0455
2022-10-30T23:19:28.573Z,4.0406
2022-10-30T23:24:40.406Z,4.0406
2022-10-30T23:35:04.415Z,4.0406
2022-10-30T23:40:16.068Z,4.0309
2022-10-30T23:45:27.893Z,4.0309
2022-10-30T23:50:39.765Z,4.0309
